sensor_id;sensor_type;location;lat;lon;timestamp;P1;P2;P0
80396;PMS5003;69721;55.894;-3.052;2024-01-30T00:01:26;1;1;
80396;PMS5003;69721;55.894;-3.052;2024-01-30T00:03:52;0;0;
80396;PMS5003;69721;55.894;-3.052;2024-01-30T00:06:18;2;1;
80396;PMS5003;69721;55.894;-3.052;2024-01-30T00:08:43;0;0;
80396;PMS5003;69721;55.894;-3.052;2024-01-30T00:11:08;3;0;
80396;PMS5003;69721;55.894;-3.052;2024-01-30T00:13:34;0;0;
80396;PMS5003;69721;55.894;-3.052;2024-01-30T00:15:59;0;0;
80396;PMS5003;69721;55.894;-3.052;2024-01-30T00:18:25;1;1;
80396;PMS5003;69721;55.894;-3.052;2024-01-30T00:20:50;1;0;
80396;PMS5003;69721;55.894;-3.052;2024-01-30T00:23:16;1;1;
80396;PMS5003;69721;55.894;-3.052;2024-01-30T00:25:42;4;1;
80396;PMS5003;69721;55.894;-3.052;2024-01-30T00:28:08;1;0;
80396;PMS5003;69721;55.894;-3.052;2024-01-30T00:30:33;1;1;
80396;PMS5003;69721;55.894;-3.052;2024-01-30T00:32:59;0;0;
80396;PMS5003;69721;55.894;-3.052;2024-01-30T00:35:24;0;0;
80396;PMS5003;69721;55.894;-3.052;2024-01-30T00:37:50;1;1;
80396;PMS5003;69721;55.894;-3.052;2024-01-30T00:40:15;0;0;
80396;PMS5003;69721;55.894;-3.052;2024-01-30T00:42:41;1;0;
80396;PMS5003;69721;55.894;-3.052;2024-01-30T00:45:11;1;1;
80396;PMS5003;69721;55.894;-3.052;2024-01-30T00:47:32;1;0;
80396;PMS5003;69721;55.894;-3.052;2024-01-30T00:49:57;1;1;
80396;PMS5003;69721;55.894;-3.052;2024-01-30T00:52:23;1;0;
80396;PMS5003;69721;55.894;-3.052;2024-01-30T00:54:48;2;0;
80396;PMS5003;69721;55.894;-3.052;2024-01-30T00:57:14;1;1;
80396;PMS5003;69721;55.894;-3.052;2024-01-30T00:59:39;4;2;
80396;PMS5003;69721;55.894;-3.052;2024-01-30T01:02:05;0;0;
80396;PMS5003;69721;55.894;-3.052;2024-01-30T01:04:30;2;0;
80396;PMS5003;69721;55.894;-3.052;2024-01-30T01:06:56;1;0;
80396;PMS5003;69721;55.894;-3.052;2024-01-30T01:09:21;3;1;
80396;PMS5003;69721;55.894;-3.052;2024-01-30T01:11:47;0;0;
80396;PMS5003;69721;55.894;-3.052;2024-01-30T01:14:12;1;0;
80396;PMS5003;69721;55.894;-3.052;2024-01-30T01:16:38;2;1;
80396;PMS5003;69721;55.894;-3.052;2024-01-30T01:19:03;3;1;
80396;PMS5003;69721;55.894;-3.052;2024-01-30T01:21:29;2;1;
80396;PMS5003;69721;55.894;-3.052;2024-01-30T01:23:55;2;0;
80396;PMS5003;69721;55.894;-3.052;2024-01-30T01:26:20;2;1;
80396;PMS5003;69721;55.894;-3.052;2024-01-30T01:28:46;0;0;
80396;PMS5003;69721;55.894;-3.052;2024-01-30T01:31:11;3;2;
80396;PMS5003;69721;55.894;-3.052;2024-01-30T01:33:37;6;0;
80396;PMS5003;69721;55.894;-3.052;2024-01-30T01:36:02;0;0;
80396;PMS5003;69721;55.894;-3.052;2024-01-30T01:38:28;0;0;
80396;PMS5003;69721;55.894;-3.052;2024-01-30T01:40:53;1;1;
80396;PMS5003;69721;55.894;-3.052;2024-01-30T01:43:19;1;1;
80396;PMS5003;69721;55.894;-3.052;2024-01-30T01:45:44;2;1;
80396;PMS5003;69721;55.894;-3.052;2024-01-30T01:48:11;0;0;
80396;PMS5003;69721;55.894;-3.052;2024-01-30T01:50:36;2;0;
80396;PMS5003;69721;55.894;-3.052;2024-01-30T01:53:02;2;0;
80396;PMS5003;69721;55.894;-3.052;2024-01-30T01:55:27;2;1;
80396;PMS5003;69721;55.894;-3.052;2024-01-30T01:57:53;2;1;
80396;PMS5003;69721;55.894;-3.052;2024-01-30T02:00:18;0;0;
80396;PMS5003;69721;55.894;-3.052;2024-01-30T02:02:44;1;1;
80396;PMS5003;69721;55.894;-3.052;2024-01-30T02:05:09;0;0;
80396;PMS5003;69721;55.894;-3.052;2024-01-30T02:07:35;1;1;
80396;PMS5003;69721;55.894;-3.052;2024-01-30T02:10:00;4;1;
80396;PMS5003;69721;55.894;-3.052;2024-01-30T02:12:26;2;0;
80396;PMS5003;69721;55.894;-3.052;2024-01-30T02:14:52;5;2;
80396;PMS5003;69721;55.894;-3.052;2024-01-30T02:17:17;1;1;
80396;PMS5003;69721;55.894;-3.052;2024-01-30T02:19:43;2;0;
80396;PMS5003;69721;55.894;-3.052;2024-01-30T02:22:08;0;0;
80396;PMS5003;69721;55.894;-3.052;2024-01-30T02:24:34;1;1;
80396;PMS5003;69721;55.894;-3.052;2024-01-30T02:26:59;2;1;
80396;PMS5003;69721;55.894;-3.052;2024-01-30T02:29:25;4;4;
80396;PMS5003;69721;55.894;-3.052;2024-01-30T02:31:50;0;0;
80396;PMS5003;69721;55.894;-3.052;2024-01-30T02:34:16;2;0;
80396;PMS5003;69721;55.894;-3.052;2024-01-30T02:36:42;1;0;
80396;PMS5003;69721;55.894;-3.052;2024-01-30T02:39:07;3;0;
80396;PMS5003;69721;55.894;-3.052;2024-01-30T02:41:32;0;0;
80396;PMS5003;69721;55.894;-3.052;2024-01-30T02:43:58;2;0;
80396;PMS5003;69721;55.894;-3.052;2024-01-30T02:46:23;0;0;
80396;PMS5003;69721;55.894;-3.052;2024-01-30T02:48:49;2;1;
80396;PMS5003;69721;55.894;-3.052;2024-01-30T02:51:14;0;0;
80396;PMS5003;69721;55.894;-3.052;2024-01-30T02:53:40;1;0;
80396;PMS5003;69721;55.894;-3.052;2024-01-30T02:56:06;4;1;
80396;PMS5003;69721;55.894;-3.052;2024-01-30T02:58:31;0;0;
80396;PMS5003;69721;55.894;-3.052;2024-01-30T03:00:57;8;7;
80396;PMS5003;69721;55.894;-3.052;2024-01-30T03:03:22;2;1;
80396;PMS5003;69721;55.894;-3.052;2024-01-30T03:05:48;0;0;
80396;PMS5003;69721;55.894;-3.052;2024-01-30T03:08:13;0;0;
80396;PMS5003;69721;55.894;-3.052;2024-01-30T03:10:38;3;1;
80396;PMS5003;69721;55.894;-3.052;2024-01-30T03:13:04;6;1;
80396;PMS5003;69721;55.894;-3.052;2024-01-30T03:15:29;6;1;
80396;PMS5003;69721;55.894;-3.052;2024-01-30T03:17:55;2;2;
80396;PMS5003;69721;55.894;-3.052;2024-01-30T03:20:21;1;1;
80396;PMS5003;69721;55.894;-3.052;2024-01-30T03:22:46;3;1;
80396;PMS5003;69721;55.894;-3.052;2024-01-30T03:25:12;2;2;
80396;PMS5003;69721;55.894;-3.052;2024-01-30T03:27:38;2;1;
80396;PMS5003;69721;55.894;-3.052;2024-01-30T03:30:04;5;0;
80396;PMS5003;69721;55.894;-3.052;2024-01-30T03:32:29;3;1;
80396;PMS5003;69721;55.894;-3.052;2024-01-30T03:34:54;4;1;
80396;PMS5003;69721;55.894;-3.052;2024-01-30T03:37:20;2;2;
80396;PMS5003;69721;55.894;-3.052;2024-01-30T03:39:45;3;1;
80396;PMS5003;69721;55.894;-3.052;2024-01-30T03:42:10;3;1;
80396;PMS5003;69721;55.894;-3.052;2024-01-30T03:44:36;3;0;
80396;PMS5003;69721;55.894;-3.052;2024-01-30T03:47:01;2;1;
80396;PMS5003;69721;55.894;-3.052;2024-01-30T03:49:27;4;2;
80396;PMS5003;69721;55.894;-3.052;2024-01-30T03:51:52;2;2;
80396;PMS5003;69721;55.894;-3.052;2024-01-30T03:54:18;4;2;
80396;PMS5003;69721;55.894;-3.052;2024-01-30T03:56:43;4;2;
80396;PMS5003;69721;55.894;-3.052;2024-01-30T03:59:09;5;2;
80396;PMS5003;69721;55.894;-3.052;2024-01-30T04:01:34;2;2;
80396;PMS5003;69721;55.894;-3.052;2024-01-30T04:04:00;2;2;
80396;PMS5003;69721;55.894;-3.052;2024-01-30T04:06:26;1;1;
80396;PMS5003;69721;55.894;-3.052;2024-01-30T04:08:51;2;1;
80396;PMS5003;69721;55.894;-3.052;2024-01-30T04:11:18;2;2;
80396;PMS5003;69721;55.894;-3.052;2024-01-30T04:13:42;1;1;
80396;PMS5003;69721;55.894;-3.052;2024-01-30T04:16:08;1;1;
80396;PMS5003;69721;55.894;-3.052;2024-01-30T04:18:33;4;2;
80396;PMS5003;69721;55.894;-3.052;2024-01-30T04:20:59;2;1;
80396;PMS5003;69721;55.894;-3.052;2024-01-30T04:23:24;4;3;
80396;PMS5003;69721;55.894;-3.052;2024-01-30T04:25:50;7;1;
80396;PMS5003;69721;55.894;-3.052;2024-01-30T04:28:15;4;1;
80396;PMS5003;69721;55.894;-3.052;2024-01-30T04:30:41;3;2;
80396;PMS5003;69721;55.894;-3.052;2024-01-30T04:33:06;4;4;
80396;PMS5003;69721;55.894;-3.052;2024-01-30T04:35:32;1;1;
80396;PMS5003;69721;55.894;-3.052;2024-01-30T04:37:57;2;2;
80396;PMS5003;69721;55.894;-3.052;2024-01-30T04:40:23;1;1;
80396;PMS5003;69721;55.894;-3.052;2024-01-30T04:42:49;1;1;
80396;PMS5003;69721;55.894;-3.052;2024-01-30T04:45:15;2;2;
80396;PMS5003;69721;55.894;-3.052;2024-01-30T04:47:41;6;2;
80396;PMS5003;69721;55.894;-3.052;2024-01-30T04:50:07;2;2;
80396;PMS5003;69721;55.894;-3.052;2024-01-30T04:52:32;3;3;
80396;PMS5003;69721;55.894;-3.052;2024-01-30T04:54:57;2;2;
80396;PMS5003;69721;55.894;-3.052;2024-01-30T04:57:23;2;2;
80396;PMS5003;69721;55.894;-3.052;2024-01-30T04:59:48;4;1;
80396;PMS5003;69721;55.894;-3.052;2024-01-30T05:02:14;2;2;
80396;PMS5003;69721;55.894;-3.052;2024-01-30T05:04:41;1;1;
80396;PMS5003;69721;55.894;-3.052;2024-01-30T05:07:05;3;3;
80396;PMS5003;69721;55.894;-3.052;2024-01-30T05:09:30;2;1;
80396;PMS5003;69721;55.894;-3.052;2024-01-30T05:11:56;3;3;
80396;PMS5003;69721;55.894;-3.052;2024-01-30T05:14:21;3;1;
80396;PMS5003;69721;55.894;-3.052;2024-01-30T05:16:47;4;1;
80396;PMS5003;69721;55.894;-3.052;2024-01-30T05:19:13;5;2;
80396;PMS5003;69721;55.894;-3.052;2024-01-30T05:21:38;4;1;
80396;PMS5003;69721;55.894;-3.052;2024-01-30T05:24:04;1;1;
80396;PMS5003;69721;55.894;-3.052;2024-01-30T05:26:29;4;2;
80396;PMS5003;69721;55.894;-3.052;2024-01-30T05:28:54;4;3;
80396;PMS5003;69721;55.894;-3.052;2024-01-30T05:31:20;1;1;
80396;PMS5003;69721;55.894;-3.052;2024-01-30T05:33:45;3;1;
80396;PMS5003;69721;55.894;-3.052;2024-01-30T05:36:11;2;2;
80396;PMS5003;69721;55.894;-3.052;2024-01-30T05:38:37;3;1;
80396;PMS5003;69721;55.894;-3.052;2024-01-30T05:41:02;4;2;
80396;PMS5003;69721;55.894;-3.052;2024-01-30T05:43:28;3;2;
80396;PMS5003;69721;55.894;-3.052;2024-01-30T05:45:53;3;2;
80396;PMS5003;69721;55.894;-3.052;2024-01-30T05:48:19;3;2;
80396;PMS5003;69721;55.894;-3.052;2024-01-30T05:50:44;4;3;
80396;PMS5003;69721;55.894;-3.052;2024-01-30T05:53:10;1;1;
80396;PMS5003;69721;55.894;-3.052;2024-01-30T05:55:35;2;1;
80396;PMS5003;69721;55.894;-3.052;2024-01-30T05:58:01;2;2;
80396;PMS5003;69721;55.894;-3.052;2024-01-30T06:00:26;2;2;
80396;PMS5003;69721;55.894;-3.052;2024-01-30T06:02:52;3;3;
80396;PMS5003;69721;55.894;-3.052;2024-01-30T06:05:17;2;2;
80396;PMS5003;69721;55.894;-3.052;2024-01-30T06:07:43;3;1;
80396;PMS5003;69721;55.894;-3.052;2024-01-30T06:10:08;3;1;
80396;PMS5003;69721;55.894;-3.052;2024-01-30T06:12:34;3;3;
80396;PMS5003;69721;55.894;-3.052;2024-01-30T06:14:59;4;2;
80396;PMS5003;69721;55.894;-3.052;2024-01-30T06:17:25;2;2;
80396;PMS5003;69721;55.894;-3.052;2024-01-30T06:19:50;1;1;
80396;PMS5003;69721;55.894;-3.052;2024-01-30T06:22:17;2;2;
80396;PMS5003;69721;55.894;-3.052;2024-01-30T06:24:43;2;1;
80396;PMS5003;69721;55.894;-3.052;2024-01-30T06:27:08;3;3;
80396;PMS5003;69721;55.894;-3.052;2024-01-30T06:29:33;2;1;
80396;PMS5003;69721;55.894;-3.052;2024-01-30T06:31:59;1;1;
80396;PMS5003;69721;55.894;-3.052;2024-01-30T06:34:24;4;3;
80396;PMS5003;69721;55.894;-3.052;2024-01-30T06:36:50;5;3;
80396;PMS5003;69721;55.894;-3.052;2024-01-30T06:39:15;1;1;
80396;PMS5003;69721;55.894;-3.052;2024-01-30T06:41:41;2;2;
80396;PMS5003;69721;55.894;-3.052;2024-01-30T06:44:07;5;3;
80396;PMS5003;69721;55.894;-3.052;2024-01-30T06:46:32;5;3;
80396;PMS5003;69721;55.894;-3.052;2024-01-30T06:48:58;4;4;
80396;PMS5003;69721;55.894;-3.052;2024-01-30T06:51:23;5;2;
80396;PMS5003;69721;55.894;-3.052;2024-01-30T06:53:48;4;2;
80396;PMS5003;69721;55.894;-3.052;2024-01-30T06:56:14;4;2;
80396;PMS5003;69721;55.894;-3.052;2024-01-30T06:58:39;4;2;
80396;PMS5003;69721;55.894;-3.052;2024-01-30T07:01:06;2;2;
80396;PMS5003;69721;55.894;-3.052;2024-01-30T07:03:31;3;3;
80396;PMS5003;69721;55.894;-3.052;2024-01-30T07:05:56;10;4;
80396;PMS5003;69721;55.894;-3.052;2024-01-30T07:08:22;7;3;
80396;PMS5003;69721;55.894;-3.052;2024-01-30T07:10:47;3;3;
80396;PMS5003;69721;55.894;-3.052;2024-01-30T07:13:13;2;2;
80396;PMS5003;69721;55.894;-3.052;2024-01-30T07:15:39;7;6;
80396;PMS5003;69721;55.894;-3.052;2024-01-30T07:18:05;6;5;
80396;PMS5003;69721;55.894;-3.052;2024-01-30T07:20:30;9;3;
80396;PMS5003;69721;55.894;-3.052;2024-01-30T07:22:56;5;3;
80396;PMS5003;69721;55.894;-3.052;2024-01-30T07:25:21;4;4;
80396;PMS5003;69721;55.894;-3.052;2024-01-30T07:27:47;5;3;
80396;PMS5003;69721;55.894;-3.052;2024-01-30T07:30:12;6;4;
80396;PMS5003;69721;55.894;-3.052;2024-01-30T07:32:38;3;3;
80396;PMS5003;69721;55.894;-3.052;2024-01-30T07:35:04;4;4;
80396;PMS5003;69721;55.894;-3.052;2024-01-30T07:37:29;5;4;
80396;PMS5003;69721;55.894;-3.052;2024-01-30T07:39:54;2;2;
80396;PMS5003;69721;55.894;-3.052;2024-01-30T07:42:20;3;3;
80396;PMS5003;69721;55.894;-3.052;2024-01-30T07:44:46;7;2;
80396;PMS5003;69721;55.894;-3.052;2024-01-30T07:47:11;8;6;
80396;PMS5003;69721;55.894;-3.052;2024-01-30T07:49:37;7;4;
80396;PMS5003;69721;55.894;-3.052;2024-01-30T07:52:04;12;5;
80396;PMS5003;69721;55.894;-3.052;2024-01-30T07:54:29;12;3;
80396;PMS5003;69721;55.894;-3.052;2024-01-30T07:56:54;6;3;
80396;PMS5003;69721;55.894;-3.052;2024-01-30T07:59:19;6;3;
80396;PMS5003;69721;55.894;-3.052;2024-01-30T08:01:45;5;5;
80396;PMS5003;69721;55.894;-3.052;2024-01-30T08:04:10;5;4;
80396;PMS5003;69721;55.894;-3.052;2024-01-30T08:06:35;5;3;
80396;PMS5003;69721;55.894;-3.052;2024-01-30T08:09:01;17;11;
80396;PMS5003;69721;55.894;-3.052;2024-01-30T08:11:27;17;13;
80396;PMS5003;69721;55.894;-3.052;2024-01-30T08:13:52;13;12;
80396;PMS5003;69721;55.894;-3.052;2024-01-30T08:16:17;14;11;
80396;PMS5003;69721;55.894;-3.052;2024-01-30T08:18:43;6;6;
80396;PMS5003;69721;55.894;-3.052;2024-01-30T08:21:09;9;5;
80396;PMS5003;69721;55.894;-3.052;2024-01-30T08:23:34;8;4;
80396;PMS5003;69721;55.894;-3.052;2024-01-30T08:25:59;9;4;
80396;PMS5003;69721;55.894;-3.052;2024-01-30T08:28:25;4;4;
80396;PMS5003;69721;55.894;-3.052;2024-01-30T08:30:51;4;4;
80396;PMS5003;69721;55.894;-3.052;2024-01-30T08:33:16;6;4;
80396;PMS5003;69721;55.894;-3.052;2024-01-30T08:35:42;3;3;
80396;PMS5003;69721;55.894;-3.052;2024-01-30T08:38:07;6;4;
80396;PMS5003;69721;55.894;-3.052;2024-01-30T08:40:33;10;7;
80396;PMS5003;69721;55.894;-3.052;2024-01-30T08:42:59;12;10;
80396;PMS5003;69721;55.894;-3.052;2024-01-30T08:45:24;5;5;
80396;PMS5003;69721;55.894;-3.052;2024-01-30T08:47:50;11;6;
80396;PMS5003;69721;55.894;-3.052;2024-01-30T08:50:15;5;4;
80396;PMS5003;69721;55.894;-3.052;2024-01-30T08:52:41;9;6;
80396;PMS5003;69721;55.894;-3.052;2024-01-30T08:55:07;6;6;
80396;PMS5003;69721;55.894;-3.052;2024-01-30T08:57:32;8;6;
80396;PMS5003;69721;55.894;-3.052;2024-01-30T08:59:58;4;4;
80396;PMS5003;69721;55.894;-3.052;2024-01-30T09:02:23;5;2;
80396;PMS5003;69721;55.894;-3.052;2024-01-30T09:04:49;6;3;
80396;PMS5003;69721;55.894;-3.052;2024-01-30T09:07:21;1;1;
80396;PMS5003;69721;55.894;-3.052;2024-01-30T09:09:46;4;3;
80396;PMS5003;69721;55.894;-3.052;2024-01-30T09:12:12;2;2;
80396;PMS5003;69721;55.894;-3.052;2024-01-30T09:14:38;2;2;
80396;PMS5003;69721;55.894;-3.052;2024-01-30T09:17:03;3;3;
80396;PMS5003;69721;55.894;-3.052;2024-01-30T09:19:29;11;5;
80396;PMS5003;69721;55.894;-3.052;2024-01-30T09:21:54;6;4;
80396;PMS5003;69721;55.894;-3.052;2024-01-30T09:24:20;6;3;
80396;PMS5003;69721;55.894;-3.052;2024-01-30T09:26:45;1;1;
80396;PMS5003;69721;55.894;-3.052;2024-01-30T09:29:11;2;2;
80396;PMS5003;69721;55.894;-3.052;2024-01-30T09:31:36;3;2;
80396;PMS5003;69721;55.894;-3.052;2024-01-30T09:34:02;2;2;
80396;PMS5003;69721;55.894;-3.052;2024-01-30T09:36:28;4;3;
80396;PMS5003;69721;55.894;-3.052;2024-01-30T09:38:53;3;2;
80396;PMS5003;69721;55.894;-3.052;2024-01-30T09:41:19;6;2;
80396;PMS5003;69721;55.894;-3.052;2024-01-30T09:43:45;4;2;
80396;PMS5003;69721;55.894;-3.052;2024-01-30T09:46:11;5;4;
80396;PMS5003;69721;55.894;-3.052;2024-01-30T09:48:35;3;1;
80396;PMS5003;69721;55.894;-3.052;2024-01-30T09:51:01;2;2;
80396;PMS5003;69721;55.894;-3.052;2024-01-30T09:53:26;5;3;
80396;PMS5003;69721;55.894;-3.052;2024-01-30T09:55:52;2;2;
80396;PMS5003;69721;55.894;-3.052;2024-01-30T09:58:18;4;1;
80396;PMS5003;69721;55.894;-3.052;2024-01-30T10:00:43;2;1;
80396;PMS5003;69721;55.894;-3.052;2024-01-30T10:03:09;3;2;
80396;PMS5003;69721;55.894;-3.052;2024-01-30T10:05:35;4;2;
80396;PMS5003;69721;55.894;-3.052;2024-01-30T10:08:00;3;2;
80396;PMS5003;69721;55.894;-3.052;2024-01-30T10:10:26;1;1;
80396;PMS5003;69721;55.894;-3.052;2024-01-30T10:12:52;2;2;
80396;PMS5003;69721;55.894;-3.052;2024-01-30T10:15:17;4;1;
80396;PMS5003;69721;55.894;-3.052;2024-01-30T10:17:44;1;1;
80396;PMS5003;69721;55.894;-3.052;2024-01-30T10:20:09;5;1;
80396;PMS5003;69721;55.894;-3.052;2024-01-30T10:22:34;4;4;
80396;PMS5003;69721;55.894;-3.052;2024-01-30T10:25:00;4;2;
80396;PMS5003;69721;55.894;-3.052;2024-01-30T10:27:25;3;1;
80396;PMS5003;69721;55.894;-3.052;2024-01-30T10:29:50;3;3;
80396;PMS5003;69721;55.894;-3.052;2024-01-30T10:32:16;5;5;
80396;PMS5003;69721;55.894;-3.052;2024-01-30T10:34:42;6;6;
80396;PMS5003;69721;55.894;-3.052;2024-01-30T10:37:08;10;7;
80396;PMS5003;69721;55.894;-3.052;2024-01-30T10:39:34;9;7;
80396;PMS5003;69721;55.894;-3.052;2024-01-30T10:42:00;14;5;
80396;PMS5003;69721;55.894;-3.052;2024-01-30T10:44:25;17;12;
80396;PMS5003;69721;55.894;-3.052;2024-01-30T10:46:55;9;7;
80396;PMS5003;69721;55.894;-3.052;2024-01-30T10:49:15;14;11;
80396;PMS5003;69721;55.894;-3.052;2024-01-30T10:51:41;16;11;
80396;PMS5003;69721;55.894;-3.052;2024-01-30T10:54:06;17;12;
80396;PMS5003;69721;55.894;-3.052;2024-01-30T10:56:32;8;8;
80396;PMS5003;69721;55.894;-3.052;2024-01-30T10:58:57;10;10;
80396;PMS5003;69721;55.894;-3.052;2024-01-30T11:01:22;15;11;
80396;PMS5003;69721;55.894;-3.052;2024-01-30T11:03:48;21;16;
80396;PMS5003;69721;55.894;-3.052;2024-01-30T11:06:13;19;17;
80396;PMS5003;69721;55.894;-3.052;2024-01-30T11:08:39;19;17;
80396;PMS5003;69721;55.894;-3.052;2024-01-30T11:11:08;14;13;
80396;PMS5003;69721;55.894;-3.052;2024-01-30T11:13:31;17;9;
80396;PMS5003;69721;55.894;-3.052;2024-01-30T11:16:00;8;6;
80396;PMS5003;69721;55.894;-3.052;2024-01-30T11:18:23;7;5;
80396;PMS5003;69721;55.894;-3.052;2024-01-30T11:20:47;5;4;
80396;PMS5003;69721;55.894;-3.052;2024-01-30T11:23:13;3;2;
80396;PMS5003;69721;55.894;-3.052;2024-01-30T11:25:38;5;5;
80396;PMS5003;69721;55.894;-3.052;2024-01-30T11:28:04;5;4;
80396;PMS5003;69721;55.894;-3.052;2024-01-30T11:30:30;5;4;
80396;PMS5003;69721;55.894;-3.052;2024-01-30T11:32:59;5;3;
80396;PMS5003;69721;55.894;-3.052;2024-01-30T11:35:20;6;3;
80396;PMS5003;69721;55.894;-3.052;2024-01-30T11:37:46;3;2;
80396;PMS5003;69721;55.894;-3.052;2024-01-30T11:40:11;6;2;
80396;PMS5003;69721;55.894;-3.052;2024-01-30T11:42:38;6;4;
80396;PMS5003;69721;55.894;-3.052;2024-01-30T11:45:04;1;1;
80396;PMS5003;69721;55.894;-3.052;2024-01-30T11:47:29;8;6;
80396;PMS5003;69721;55.894;-3.052;2024-01-30T11:49:54;5;5;
80396;PMS5003;69721;55.894;-3.052;2024-01-30T11:52:20;3;1;
80396;PMS5003;69721;55.894;-3.052;2024-01-30T11:54:45;2;2;
80396;PMS5003;69721;55.894;-3.052;2024-01-30T11:57:11;1;1;
80396;PMS5003;69721;55.894;-3.052;2024-01-30T11:59:37;1;1;
80396;PMS5003;69721;55.894;-3.052;2024-01-30T12:02:02;5;1;
80396;PMS5003;69721;55.894;-3.052;2024-01-30T12:04:28;1;0;
80396;PMS5003;69721;55.894;-3.052;2024-01-30T12:06:53;1;1;
80396;PMS5003;69721;55.894;-3.052;2024-01-30T12:09:18;1;0;
80396;PMS5003;69721;55.894;-3.052;2024-01-30T12:11:44;5;2;
80396;PMS5003;69721;55.894;-3.052;2024-01-30T12:14:09;2;0;
80396;PMS5003;69721;55.894;-3.052;2024-01-30T12:16:35;2;2;
80396;PMS5003;69721;55.894;-3.052;2024-01-30T12:19:01;0;0;
80396;PMS5003;69721;55.894;-3.052;2024-01-30T12:21:26;2;2;
80396;PMS5003;69721;55.894;-3.052;2024-01-30T12:23:52;1;1;
80396;PMS5003;69721;55.894;-3.052;2024-01-30T12:26:17;1;1;
80396;PMS5003;69721;55.894;-3.052;2024-01-30T12:28:48;2;1;
80396;PMS5003;69721;55.894;-3.052;2024-01-30T12:31:08;3;2;
80396;PMS5003;69721;55.894;-3.052;2024-01-30T12:33:35;3;2;
80396;PMS5003;69721;55.894;-3.052;2024-01-30T12:36:01;4;1;
80396;PMS5003;69721;55.894;-3.052;2024-01-30T12:38:25;1;1;
80396;PMS5003;69721;55.894;-3.052;2024-01-30T12:40:53;4;1;
80396;PMS5003;69721;55.894;-3.052;2024-01-30T12:43:16;3;1;
80396;PMS5003;69721;55.894;-3.052;2024-01-30T12:45:41;4;2;
80396;PMS5003;69721;55.894;-3.052;2024-01-30T12:48:08;2;0;
80396;PMS5003;69721;55.894;-3.052;2024-01-30T12:50:32;3;3;
80396;PMS5003;69721;55.894;-3.052;2024-01-30T12:52:58;1;1;
80396;PMS5003;69721;55.894;-3.052;2024-01-30T12:55:23;2;2;
80396;PMS5003;69721;55.894;-3.052;2024-01-30T12:57:49;2;1;
80396;PMS5003;69721;55.894;-3.052;2024-01-30T13:00:15;4;3;
80396;PMS5003;69721;55.894;-3.052;2024-01-30T13:02:39;5;2;
80396;PMS5003;69721;55.894;-3.052;2024-01-30T13:05:05;3;3;
80396;PMS5003;69721;55.894;-3.052;2024-01-30T13:07:31;2;1;
80396;PMS5003;69721;55.894;-3.052;2024-01-30T13:09:56;3;2;
80396;PMS5003;69721;55.894;-3.052;2024-01-30T13:12:22;1;1;
80396;PMS5003;69721;55.894;-3.052;2024-01-30T13:14:47;3;2;
80396;PMS5003;69721;55.894;-3.052;2024-01-30T13:17:13;2;2;
80396;PMS5003;69721;55.894;-3.052;2024-01-30T13:19:38;1;1;
80396;PMS5003;69721;55.894;-3.052;2024-01-30T13:22:05;3;2;
80396;PMS5003;69721;55.894;-3.052;2024-01-30T13:24:30;3;3;
80396;PMS5003;69721;55.894;-3.052;2024-01-30T13:26:56;2;2;
80396;PMS5003;69721;55.894;-3.052;2024-01-30T13:29:21;3;1;
80396;PMS5003;69721;55.894;-3.052;2024-01-30T13:31:47;4;2;
80396;PMS5003;69721;55.894;-3.052;2024-01-30T13:34:12;1;1;
80396;PMS5003;69721;55.894;-3.052;2024-01-30T13:36:38;1;1;
80396;PMS5003;69721;55.894;-3.052;2024-01-30T13:39:04;4;2;
80396;PMS5003;69721;55.894;-3.052;2024-01-30T13:41:29;1;1;
80396;PMS5003;69721;55.894;-3.052;2024-01-30T13:43:55;4;2;
80396;PMS5003;69721;55.894;-3.052;2024-01-30T13:46:20;2;1;
80396;PMS5003;69721;55.894;-3.052;2024-01-30T13:48:45;5;3;
80396;PMS5003;69721;55.894;-3.052;2024-01-30T13:51:11;2;1;
80396;PMS5003;69721;55.894;-3.052;2024-01-30T13:53:36;2;2;
80396;PMS5003;69721;55.894;-3.052;2024-01-30T13:56:02;2;2;
80396;PMS5003;69721;55.894;-3.052;2024-01-30T13:58:28;1;1;
80396;PMS5003;69721;55.894;-3.052;2024-01-30T14:00:53;5;2;
80396;PMS5003;69721;55.894;-3.052;2024-01-30T14:03:19;6;4;
80396;PMS5003;69721;55.894;-3.052;2024-01-30T14:05:44;2;2;
80396;PMS5003;69721;55.894;-3.052;2024-01-30T14:08:10;3;1;
80396;PMS5003;69721;55.894;-3.052;2024-01-30T14:10:36;6;3;
80396;PMS5003;69721;55.894;-3.052;2024-01-30T14:13:02;4;3;
80396;PMS5003;69721;55.894;-3.052;2024-01-30T14:15:27;5;3;
80396;PMS5003;69721;55.894;-3.052;2024-01-30T14:17:53;4;1;
80396;PMS5003;69721;55.894;-3.052;2024-01-30T14:20:18;7;2;
80396;PMS5003;69721;55.894;-3.052;2024-01-30T14:22:44;1;1;
80396;PMS5003;69721;55.894;-3.052;2024-01-30T14:25:09;3;2;
80396;PMS5003;69721;55.894;-3.052;2024-01-30T14:27:35;2;2;
80396;PMS5003;69721;55.894;-3.052;2024-01-30T14:30:00;3;2;
80396;PMS5003;69721;55.894;-3.052;2024-01-30T14:32:26;4;3;
80396;PMS5003;69721;55.894;-3.052;2024-01-30T14:34:51;2;2;
80396;PMS5003;69721;55.894;-3.052;2024-01-30T14:37:17;2;2;
80396;PMS5003;69721;55.894;-3.052;2024-01-30T14:39:42;4;1;
80396;PMS5003;69721;55.894;-3.052;2024-01-30T14:42:08;5;1;
80396;PMS5003;69721;55.894;-3.052;2024-01-30T14:44:33;4;2;
80396;PMS5003;69721;55.894;-3.052;2024-01-30T14:46:59;3;3;
80396;PMS5003;69721;55.894;-3.052;2024-01-30T14:49:24;3;3;
80396;PMS5003;69721;55.894;-3.052;2024-01-30T14:51:50;2;2;
80396;PMS5003;69721;55.894;-3.052;2024-01-30T14:54:15;5;2;
80396;PMS5003;69721;55.894;-3.052;2024-01-30T14:56:41;3;3;
80396;PMS5003;69721;55.894;-3.052;2024-01-30T14:59:06;3;3;
80396;PMS5003;69721;55.894;-3.052;2024-01-30T15:01:31;4;4;
80396;PMS5003;69721;55.894;-3.052;2024-01-30T15:03:57;5;3;
80396;PMS5003;69721;55.894;-3.052;2024-01-30T15:06:22;2;2;
80396;PMS5003;69721;55.894;-3.052;2024-01-30T15:08:47;4;4;
80396;PMS5003;69721;55.894;-3.052;2024-01-30T15:11:33;1;1;
80396;PMS5003;69721;55.894;-3.052;2024-01-30T15:13:59;2;2;
80396;PMS5003;69721;55.894;-3.052;2024-01-30T15:16:27;0;0;
80396;PMS5003;69721;55.894;-3.052;2024-01-30T15:18:52;4;3;
80396;PMS5003;69721;55.894;-3.052;2024-01-30T15:21:18;2;2;
80396;PMS5003;69721;55.894;-3.052;2024-01-30T15:23:43;4;2;
80396;PMS5003;69721;55.894;-3.052;2024-01-30T15:26:09;2;2;
80396;PMS5003;69721;55.894;-3.052;2024-01-30T15:28:35;4;3;
80396;PMS5003;69721;55.894;-3.052;2024-01-30T15:31:00;1;1;
80396;PMS5003;69721;55.894;-3.052;2024-01-30T15:33:26;2;2;
80396;PMS5003;69721;55.894;-3.052;2024-01-30T15:35:51;2;2;
80396;PMS5003;69721;55.894;-3.052;2024-01-30T15:38:17;1;1;
80396;PMS5003;69721;55.894;-3.052;2024-01-30T15:40:43;3;3;
80396;PMS5003;69721;55.894;-3.052;2024-01-30T15:43:10;3;1;
80396;PMS5003;69721;55.894;-3.052;2024-01-30T15:45:35;3;2;
80396;PMS5003;69721;55.894;-3.052;2024-01-30T15:48:02;4;2;
80396;PMS5003;69721;55.894;-3.052;2024-01-30T15:50:27;2;2;
80396;PMS5003;69721;55.894;-3.052;2024-01-30T15:52:53;3;3;
80396;PMS5003;69721;55.894;-3.052;2024-01-30T15:55:18;3;2;
80396;PMS5003;69721;55.894;-3.052;2024-01-30T15:57:44;2;1;
80396;PMS5003;69721;55.894;-3.052;2024-01-30T16:00:11;5;2;
80396;PMS5003;69721;55.894;-3.052;2024-01-30T16:02:35;1;1;
80396;PMS5003;69721;55.894;-3.052;2024-01-30T16:05:01;3;3;
80396;PMS5003;69721;55.894;-3.052;2024-01-30T16:07:26;1;1;
80396;PMS5003;69721;55.894;-3.052;2024-01-30T16:09:52;1;1;
80396;PMS5003;69721;55.894;-3.052;2024-01-30T16:12:17;3;2;
80396;PMS5003;69721;55.894;-3.052;2024-01-30T16:14:43;2;2;
80396;PMS5003;69721;55.894;-3.052;2024-01-30T16:17:08;4;3;
80396;PMS5003;69721;55.894;-3.052;2024-01-30T16:19:34;4;2;
80396;PMS5003;69721;55.894;-3.052;2024-01-30T16:21:59;4;2;